createdAt,value
2022-07-30T00:01:52.326Z,100931.47
2022-07-30T00:04:19.016Z,100927.13
2022-07-30T00:06:45.397Z,100926.03
2022-07-30T00:09:11.999Z,100934.19
2022-07-30T00:11:38.400Z,100928.75
2022-07-30T00:14:05.043Z,100927.91
2022-07-30T00:16:31.768Z,100936.91
2022-07-30T00:18:58.199Z,100933.34
2022-07-30T00:21:36.273Z,100934.19
2022-07-30T00:24:05.323Z,100937.72
2022-07-30T00:26:31.714Z,100939.63
2022-07-30T00:28:58.030Z,100936.91
2022-07-30T00:31:24.696Z,100930.63
2022-07-30T00:33:51.101Z,100923.28
2022-07-30T00:36:17.645Z,100924.41
2022-07-30T00:38:44.114Z,100921.66
2022-07-30T00:41:10.474Z,100918.94
2022-07-30T00:43:36.958Z,100911.59
2022-07-30T00:46:03.437Z,100916.22
2022-07-30T00:48:29.820Z,100922.47
2022-07-30T00:50:56.210Z,100916.22
2022-07-30T00:53:23.752Z,100918.94
2022-07-30T00:55:50.265Z,100910.78
2022-07-30T00:58:19.924Z,100913.50
2022-07-30T01:00:46.364Z,100912.41
2022-07-30T01:03:12.822Z,100914.31
2022-07-30T01:05:44.158Z,100908.06
2022-07-30T01:08:10.650Z,100904.53
2022-07-30T01:10:37.007Z,100904.53
2022-07-30T01:13:03.449Z,100898.28
2022-07-30T01:15:29.858Z,100903.72
2022-07-30T01:17:56.220Z,100905.63
2022-07-30T01:20:22.759Z,100904.78
2022-07-30T01:22:49.122Z,100908.34
2022-07-30T01:25:15.979Z,100906.44
2022-07-30T01:27:42.362Z,100900.19
2022-07-30T01:30:08.806Z,100892.00
2022-07-30T01:32:35.291Z,100892.00
2022-07-30T01:35:01.994Z,100902.06
2022-07-30T01:37:28.377Z,100904.78
2022-07-30T01:39:54.793Z,100910.22
2022-07-30T01:42:21.439Z,100910.22
2022-07-30T01:44:47.813Z,100907.50
2022-07-30T01:47:14.218Z,100905.06
2022-07-30T01:49:40.622Z,100905.88
2022-07-30T01:52:07.258Z,100905.06
2022-07-30T01:54:33.938Z,100904.25
2022-07-30T01:57:00.505Z,100901.53
2022-07-30T01:59:26.933Z,100894.19
2022-07-30T02:01:53.510Z,100890.94
2022-07-30T02:04:20.013Z,100893.38
2022-07-30T02:06:50.331Z,100892.28
2022-07-30T02:09:16.682Z,100891.19
2022-07-30T02:11:42.975Z,100890.66
2022-07-30T02:14:09.403Z,100879.50
2022-07-30T02:16:35.882Z,100883.28
2022-07-30T02:19:13.843Z,100880.56
2022-07-30T02:21:40.550Z,100884.13
2022-07-30T02:24:16.799Z,100879.78
2022-07-30T02:26:43.197Z,100888.72
2022-07-30T02:29:11.563Z,100878.94
2022-07-30T02:31:38.133Z,100871.63
2022-07-30T02:34:04.651Z,100874.59
2022-07-30T02:36:31.010Z,100877.06
2022-07-30T02:38:57.621Z,100879.22
2022-07-30T02:41:33.840Z,100873.78
2022-07-30T02:44:03.449Z,100877.06
2022-07-30T02:46:30.014Z,100878.94
2022-07-30T02:48:56.621Z,100877.31
2022-07-30T02:51:23.177Z,100884.66
2022-07-30T02:53:51.842Z,100881.66
2022-07-30T02:56:18.424Z,100876.50
2022-07-30T02:58:44.803Z,100872.97
2022-07-30T03:01:11.522Z,100872.97
2022-07-30T03:03:37.953Z,100872.97
2022-07-30T03:06:04.262Z,100872.97
2022-07-30T03:08:30.732Z,100867.53
2022-07-30T03:10:57.253Z,100865.09
2022-07-30T03:13:23.874Z,100864.00
2022-07-30T03:15:56.763Z,100864.00
2022-07-30T03:18:33.125Z,100866.72
2022-07-30T03:20:59.695Z,100869.44
2022-07-30T03:23:26.211Z,100865.88
2022-07-30T03:25:56.597Z,100864.25
2022-07-30T03:28:32.831Z,100861.28
2022-07-30T03:30:59.240Z,100861.28
2022-07-30T03:33:38.022Z,100865.34
2022-07-30T03:36:04.926Z,100858.56
2022-07-30T03:38:31.758Z,100868.59
2022-07-30T03:40:58.129Z,100875.97
2022-07-30T03:43:33.209Z,100868.59
2022-07-30T03:46:00.429Z,100872.16
2022-07-30T03:48:26.779Z,100869.69
2022-07-30T03:51:00.326Z,100873.25
2022-07-30T03:53:26.894Z,100875.16
2022-07-30T03:55:53.316Z,100874.34
2022-07-30T03:58:19.829Z,100884.41
2022-07-30T04:00:46.213Z,100888.75
2022-07-30T04:03:12.869Z,100889.84
2022-07-30T04:05:41.715Z,100892.56
2022-07-30T04:08:08.216Z,100890.66
2022-07-30T04:10:35.225Z,100893.38
2022-07-30T04:13:02.910Z,100888.47
2022-07-30T04:16:37.623Z,100892.28
2022-07-30T04:18:28.009Z,100892.28
2022-07-30T04:20:54.577Z,100892.56
2022-07-30T04:23:28.230Z,100896.13
2022-07-30T04:26:04.444Z,100898.00
2022-07-30T04:28:30.871Z,100888.22
2022-07-30T04:30:57.473Z,100892.56
2022-07-30T04:33:24.178Z,100889.56
2022-07-30T04:35:52.338Z,100894.47
2022-07-30T04:38:18.901Z,100898.28
2022-07-30T04:40:45.511Z,100893.66
2022-07-30T04:43:11.985Z,100891.72
2022-07-30T04:45:38.411Z,100892.84
2022-07-30T04:48:04.774Z,100889.31
2022-07-30T04:50:31.452Z,100892.03
2022-07-30T04:52:57.838Z,100887.66
2022-07-30T04:55:24.255Z,100891.22
2022-07-30T04:57:50.708Z,100895.03
2022-07-30T05:00:17.066Z,100891.22
2022-07-30T05:02:43.554Z,100896.91
2022-07-30T05:05:10.088Z,100895.03
2022-07-30T05:07:36.649Z,100895.56
2022-07-30T05:10:03.278Z,100900.19
2022-07-30T05:12:31.597Z,100902.91
2022-07-30T05:15:02.749Z,100911.34
2022-07-30T05:17:39.053Z,100909.41
2022-07-30T05:20:11.035Z,100908.63
2022-07-30T05:22:37.759Z,100910.53
2022-07-30T05:25:16.141Z,100915.97
2022-07-30T05:27:43.143Z,100922.50
2022-07-30T05:30:09.871Z,100920.56
2022-07-30T05:32:38.833Z,100920.56
2022-07-30T05:35:05.354Z,100924.38
2022-07-30T05:37:32.195Z,100918.94
2022-07-30T05:40:02.529Z,100920.88
2022-07-30T05:42:30.021Z,100921.66
2022-07-30T05:44:56.555Z,100921.94
2022-07-30T05:47:22.922Z,100922.75
2022-07-30T05:49:49.385Z,100923.28
2022-07-30T05:52:15.845Z,100925.75
2022-07-30T05:54:42.242Z,100922.19
2022-07-30T05:57:08.671Z,100921.13
2022-07-30T05:59:35.074Z,100926.03
2022-07-30T06:02:01.498Z,100925.75
2022-07-30T06:04:28.032Z,100930.38
2022-07-30T06:06:54.503Z,100935.28
2022-07-30T06:09:26.426Z,100927.13
2022-07-30T06:12:03.051Z,100927.94
2022-07-30T06:14:29.507Z,100926.28
2022-07-30T06:16:55.861Z,100931.72
2022-07-30T06:19:22.321Z,100925.50
2022-07-30T06:22:01.821Z,100936.91
2022-07-30T06:24:33.078Z,100933.09
2022-07-30T06:27:00.013Z,100938.00
2022-07-30T06:29:26.627Z,100938.00
2022-07-30T06:31:53.139Z,100936.91
2022-07-30T06:34:29.380Z,100933.38
2022-07-30T06:36:55.741Z,100948.88
2022-07-30T06:39:56.995Z,100946.97
2022-07-30T06:42:08.615Z,100945.88
2022-07-30T06:44:35.199Z,100946.16
2022-07-30T06:47:07.219Z,100950.50
2022-07-30T06:49:34.581Z,100954.31
2022-07-30T06:52:00.926Z,100952.69
2022-07-30T06:54:27.301Z,100952.41
2022-07-30T06:56:53.765Z,100958.66
2022-07-30T06:59:20.277Z,100955.94
2022-07-30T07:01:46.907Z,100961.38
2022-07-30T07:04:13.612Z,100960.84
2022-07-30T07:06:40.035Z,100961.94
2022-07-30T07:09:06.343Z,100958.13
2022-07-30T07:11:32.849Z,100954.59
2022-07-30T07:14:04.042Z,100964.94
2022-07-30T07:16:32.180Z,100962.47
2022-07-30T07:18:58.518Z,100961.94
2022-07-30T07:21:25.229Z,100965.19
2022-07-30T07:23:51.819Z,100969.81
2022-07-30T07:26:18.166Z,100960.59
2022-07-30T07:28:44.729Z,100966.81
2022-07-30T07:31:11.370Z,100964.94
2022-07-30T07:33:57.523Z,100960.28
2022-07-30T07:36:24.031Z,100959.22
2022-07-30T07:38:50.415Z,100965.72
2022-07-30T07:41:16.810Z,100965.72
2022-07-30T07:43:43.260Z,100964.66
2022-07-30T07:46:09.723Z,100964.66
2022-07-30T07:48:36.532Z,100966.03
2022-07-30T07:51:03.010Z,100963.00
2022-07-30T07:53:36.355Z,100957.56
2022-07-30T07:56:03.047Z,100963.84
2022-07-30T07:58:31.053Z,100961.13
2022-07-30T08:00:58.150Z,100961.94
2022-07-30T08:03:24.546Z,100967.38
2022-07-30T08:05:58.243Z,100974.72
2022-07-30T08:08:32.538Z,100959.22
2022-07-30T08:10:59.257Z,100967.13
2022-07-30T08:13:52.165Z,100963.84
2022-07-30T08:16:12.608Z,100969.28
2022-07-30T08:18:39.117Z,100970.09
2022-07-30T08:21:05.499Z,100979.06
2022-07-30T08:23:31.875Z,100975.53
2022-07-30T08:25:58.447Z,100980.16
2022-07-30T08:28:35.884Z,100978.25
2022-07-30T08:31:03.084Z,100972.81
2022-07-30T08:33:39.273Z,100972.81
2022-07-30T08:36:09.674Z,100975.53
2022-07-30T08:38:36.627Z,100971.72
2022-07-30T08:41:02.999Z,100978.25
2022-07-30T08:43:29.554Z,100973.88
2022-07-30T08:45:56.828Z,100974.97
2022-07-30T08:48:23.207Z,100978.53
2022-07-30T08:50:49.701Z,100976.06
2022-07-30T08:53:16.263Z,100971.47
2022-07-30T08:55:46.267Z,100980.16
2022-07-30T08:58:12.595Z,100981.25
2022-07-30T09:00:44.770Z,100979.31
2022-07-30T09:03:11.205Z,100987.47
2022-07-30T09:05:37.834Z,100982.03
2022-07-30T09:08:08.510Z,100979.88
2022-07-30T09:10:35.289Z,100988.31
2022-07-30T09:13:01.710Z,100990.78
2022-07-30T09:15:28.103Z,100982.59
2022-07-30T09:17:54.557Z,100990.22
2022-07-30T09:20:21.058Z,100980.97
2022-07-30T09:22:47.792Z,100993.50
2022-07-30T09:25:14.200Z,100992.66
2022-07-30T09:27:40.550Z,100996.47
2022-07-30T09:30:06.890Z,100994.59
2022-07-30T09:32:33.277Z,100992.66
2022-07-30T09:34:59.633Z,100995.38
2022-07-30T09:37:26.140Z,101004.38
2022-07-30T09:39:56.342Z,101003.28
2022-07-30T09:42:26.024Z,101001.38
2022-07-30T09:44:52.464Z,101006.25
2022-07-30T09:47:18.745Z,101005.19
2022-07-30T09:52:31.569Z,101005.19
2022-07-30T09:54:58.604Z,101007.34
2022-07-30T09:57:27.641Z,101008.97
2022-07-30T09:59:54.411Z,101010.63
2022-07-30T10:02:21.001Z,101011.69
2022-07-30T10:04:48.083Z,101010.63
2022-07-30T10:07:14.807Z,101000.81
2022-07-30T10:10:01.959Z,101009.81
2022-07-30T10:12:32.811Z,101012.78
2022-07-30T10:14:59.377Z,101008.97
2022-07-30T10:17:25.987Z,101008.19
2022-07-30T10:19:52.462Z,101004.38
2022-07-30T10:22:18.790Z,101011.44
2022-07-30T10:24:45.132Z,101008.97
2022-07-30T10:27:11.549Z,101013.63
2022-07-30T10:29:39.273Z,101010.63
2022-07-30T10:32:09.564Z,101014.72
2022-07-30T10:34:36.276Z,101013.88
2022-07-30T10:37:08.906Z,101014.97
2022-07-30T10:39:35.382Z,101019.59
2022-07-30T10:42:01.901Z,101019.59
2022-07-30T10:44:28.410Z,101017.13
2022-07-30T10:46:54.989Z,101015.25
2022-07-30T10:49:23.950Z,101014.41
2022-07-30T10:51:50.663Z,101011.69
2022-07-30T10:54:17.178Z,101008.19
2022-07-30T10:56:45.332Z,101015.25
2022-07-30T10:59:18.863Z,101015.25
2022-07-30T11:01:51.689Z,101015.25
2022-07-30T11:04:20.293Z,101010.63
2022-07-30T11:06:46.964Z,101019.59
2022-07-30T11:09:13.963Z,101016.06
2022-07-30T11:12:02.351Z,101010.63
2022-07-30T11:14:26.979Z,101009.81
2022-07-30T11:16:53.505Z,101008.97
2022-07-30T11:19:56.033Z,101008.97
2022-07-30T11:22:06.221Z,101007.63
2022-07-30T11:24:32.619Z,101004.38
2022-07-30T11:26:59.102Z,101004.38
2022-07-30T11:29:33.169Z,101001.38
2022-07-30T11:32:07.712Z,100997.84
2022-07-30T11:34:38.379Z,101001.38
2022-07-30T11:37:18.312Z,100999.75
2022-07-30T11:39:48.594Z,100992.41
2022-07-30T11:42:20.084Z,100994.31
2022-07-30T11:44:46.511Z,100996.22
2022-07-30T11:47:16.037Z,100995.13
2022-07-30T11:49:42.513Z,100995.13
2022-07-30T11:52:09.036Z,101002.47
2022-07-30T11:54:35.418Z,101001.38
2022-07-30T11:57:04.612Z,101008.72
2022-07-30T11:59:34.122Z,101004.09
2022-07-30T12:02:00.861Z,101006.81
2022-07-30T12:04:36.286Z,101003.28
2022-07-30T12:07:03.084Z,101000.56
2022-07-30T12:09:29.619Z,101006.81
2022-07-30T12:11:56.282Z,101008.72
2022-07-30T12:14:22.754Z,101013.06
2022-07-30T12:16:49.118Z,101019.59
2022-07-30T12:19:15.553Z,101017.69
2022-07-30T12:21:42.189Z,101018.50
2022-07-30T12:24:08.607Z,101020.44
2022-07-30T12:26:40.558Z,101018.50
2022-07-30T12:29:06.902Z,101024.78
2022-07-30T12:31:33.620Z,101021.22
2022-07-30T12:34:00.016Z,101023.16
2022-07-30T12:36:26.445Z,101033.75
2022-07-30T12:38:52.752Z,101030.22
2022-07-30T12:41:19.118Z,101027.22
2022-07-30T12:43:45.590Z,101031.84
2022-07-30T12:46:15.024Z,101036.47
2022-07-30T12:48:42.303Z,101029.38
2022-07-30T12:51:09.803Z,101025.59
2022-07-30T12:53:36.203Z,101024.78
2022-07-30T12:56:02.575Z,101021.22
2022-07-30T12:58:28.963Z,101025.59
2022-07-30T13:00:55.466Z,101024.78
2022-07-30T13:03:22.279Z,101021.78
2022-07-30T13:05:48.862Z,101023.94
2022-07-30T13:08:15.242Z,101027.22
2022-07-30T13:10:41.921Z,101024.78
2022-07-30T13:13:08.277Z,101027.50
2022-07-30T13:15:34.918Z,101035.38
2022-07-30T13:18:02.983Z,101028.31
2022-07-30T13:20:29.304Z,101030.22
2022-07-30T13:23:01.503Z,101029.38
2022-07-30T13:25:38.946Z,101029.38
2022-07-30T13:28:07.106Z,101025.59
2022-07-30T13:30:33.606Z,101035.66
2022-07-30T13:33:00.957Z,101037.28
2022-07-30T13:35:27.298Z,101032.09
2022-07-30T13:37:53.669Z,101036.47
2022-07-30T13:40:20.111Z,101036.47
2022-07-30T13:42:47.036Z,101037.28
2022-07-30T13:45:13.446Z,101041.09
2022-07-30T13:47:39.921Z,101033.75
2022-07-30T13:50:06.309Z,101033.19
2022-07-30T13:52:32.666Z,101041.91
2022-07-30T13:54:59.069Z,101038.09
2022-07-30T13:57:27.738Z,101036.47
2022-07-30T13:59:54.189Z,101041.91
2022-07-30T14:02:20.721Z,101036.47
2022-07-30T14:04:47.170Z,101036.47
2022-07-30T14:07:14.573Z,101034.81
2022-07-30T14:09:45.928Z,101033.75
2022-07-30T14:12:16.336Z,101029.13
2022-07-30T14:14:42.715Z,101036.47
2022-07-30T14:17:09.187Z,101028.31
2022-07-30T14:19:35.497Z,101026.41
2022-07-30T14:22:01.863Z,101024.50
2022-07-30T14:24:28.127Z,101033.75
2022-07-30T14:26:58.123Z,101037.28
2022-07-30T14:29:24.917Z,101031.03
2022-07-30T14:31:51.323Z,101037.28
2022-07-30T14:34:17.791Z,101033.75
2022-07-30T14:36:44.137Z,101029.13
2022-07-30T14:39:10.490Z,101031.84
2022-07-30T14:41:37.119Z,101027.22
2022-07-30T14:44:03.497Z,101019.06
2022-07-30T14:46:29.882Z,101030.78
2022-07-30T14:48:56.443Z,101028.31
2022-07-30T14:51:26.645Z,101022.63
2022-07-30T14:53:53.525Z,101029.13
2022-07-30T14:56:19.837Z,101035.38
2022-07-30T14:58:46.290Z,101034.28
2022-07-30T15:01:15.669Z,101037.00
2022-07-30T15:03:43.159Z,101037.00
2022-07-30T15:06:09.899Z,101040.81
2022-07-30T15:08:36.415Z,101034.28
2022-07-30T15:11:02.783Z,101031.56
2022-07-30T15:13:32.502Z,101041.38
2022-07-30T15:15:58.929Z,101035.91
2022-07-30T15:18:25.374Z,101035.13
2022-07-30T15:20:51.890Z,101031.56
2022-07-30T15:23:18.355Z,101032.13
2022-07-30T15:25:44.681Z,101037.84
2022-07-30T15:28:11.536Z,101023.16
2022-07-30T15:30:37.917Z,101024.78
2022-07-30T15:33:04.335Z,101022.06
2022-07-30T15:35:30.695Z,101031.03
2022-07-30T15:37:58.374Z,101022.88
2022-07-30T15:40:24.778Z,101017.44
2022-07-30T15:42:51.160Z,101018.53
2022-07-30T15:45:18.421Z,101017.44
2022-07-30T15:47:45.231Z,101016.34
2022-07-30T15:50:11.621Z,101019.06
2022-07-30T15:52:37.993Z,101017.44
2022-07-30T15:55:04.315Z,101017.44
2022-07-30T15:57:30.730Z,101015.50
2022-07-30T15:59:57.157Z,101016.34
2022-07-30T16:02:23.902Z,101022.88
2022-07-30T16:04:50.433Z,101020.44
2022-07-30T16:07:19.266Z,101006.28
2022-07-30T16:09:45.611Z,101005.47
2022-07-30T16:12:12.201Z,101009.81
2022-07-30T16:14:38.625Z,101009.81
2022-07-30T16:17:05.146Z,101007.09
2022-07-30T16:19:31.524Z,101005.47
2022-07-30T16:21:57.823Z,101008.75
2022-07-30T16:24:24.157Z,101001.66
2022-07-30T16:26:50.583Z,101003.31
2022-07-30T16:29:16.921Z,101000.03
2022-07-30T16:31:43.236Z,101009.81
2022-07-30T16:34:09.767Z,101011.47
2022-07-30T16:36:36.140Z,100999.75
2022-07-30T16:39:02.741Z,101010.38
2022-07-30T16:41:29.017Z,100998.94
2022-07-30T16:43:55.359Z,101009.53
2022-07-30T16:46:21.851Z,101000.59
2022-07-30T16:48:54.214Z,100998.66
2022-07-30T16:51:20.614Z,101008.44
2022-07-30T16:53:47.007Z,101000.28
2022-07-30T16:56:13.317Z,101001.13
2022-07-30T16:58:40.335Z,101004.66
2022-07-30T17:01:06.729Z,100997.28
2022-07-30T17:03:33.209Z,101000.03
2022-07-30T17:05:59.649Z,101004.41
2022-07-30T17:08:26.015Z,100998.13
2022-07-30T17:10:53.992Z,101003.31
2022-07-30T17:13:20.531Z,101007.13
2022-07-30T17:15:47.082Z,101016.34
2022-07-30T17:18:13.435Z,101009.84
2022-07-30T17:20:39.943Z,101020.41
2022-07-30T17:23:06.313Z,101022.34
2022-07-30T17:25:32.629Z,101020.41
2022-07-30T17:27:59.125Z,101026.16
2022-07-30T17:30:25.541Z,101024.25
2022-07-30T17:32:51.932Z,101025.06
2022-07-30T17:35:18.310Z,101031.31
2022-07-30T17:37:44.699Z,101024.25
2022-07-30T17:40:30.399Z,101020.72
2022-07-30T17:42:57.329Z,101020.41
2022-07-30T17:45:23.710Z,101016.91
2022-07-30T17:47:55.981Z,101011.47
2022-07-30T17:50:22.583Z,101019.63
2022-07-30T17:52:48.938Z,101016.91
2022-07-30T17:55:15.232Z,101006.03
2022-07-30T17:57:41.651Z,101007.13
2022-07-30T18:00:07.946Z,101007.91
2022-07-30T18:02:34.353Z,101005.19
2022-07-30T18:05:00.808Z,101005.19
2022-07-30T18:07:27.169Z,101010.63
2022-07-30T18:09:53.527Z,101008.19
2022-07-30T18:12:19.881Z,101017.16
2022-07-30T18:14:46.266Z,101007.13
2022-07-30T18:17:14.651Z,101007.13
2022-07-30T18:19:41.097Z,101017.16
2022-07-30T18:22:07.668Z,101015.28
2022-07-30T18:24:34.847Z,101022.63
2022-07-30T18:27:06.931Z,101008.19
2022-07-30T18:29:33.269Z,101020.72
2022-07-30T18:31:59.773Z,101025.59
2022-07-30T18:34:26.634Z,101036.22
2022-07-30T18:36:52.934Z,101034.31
2022-07-30T18:39:19.291Z,101030.78
2022-07-30T18:41:45.623Z,101032.66
2022-07-30T18:44:12.060Z,101032.66
2022-07-30T18:46:38.458Z,101042.50
2022-07-30T18:49:26.640Z,101044.13
2022-07-30T18:51:51.564Z,101044.13
2022-07-30T18:54:18.655Z,101042.50
2022-07-30T18:56:45.208Z,101055.00
2022-07-30T18:59:11.700Z,101047.94
2022-07-30T19:01:38.149Z,101051.44
2022-07-30T19:04:05.552Z,101054.16
2022-07-30T19:06:34.317Z,101053.38
2022-07-30T19:09:00.702Z,101063.16
2022-07-30T19:11:27.148Z,101059.63
2022-07-30T19:13:53.493Z,101061.53
2022-07-30T19:16:19.835Z,101061.53
2022-07-30T19:18:46.178Z,101064.25
2022-07-30T19:21:14.157Z,101068.03
2022-07-30T19:23:44.644Z,101066.97
2022-07-30T19:26:12.091Z,101066.97
2022-07-30T19:28:38.473Z,101065.31
2022-07-30T19:31:04.895Z,101066.16
2022-07-30T19:33:31.207Z,101060.69
2022-07-30T19:35:57.545Z,101065.31
2022-07-30T19:38:24.286Z,101068.88
2022-07-30T19:40:51.383Z,101063.44
2022-07-30T19:43:17.705Z,101070.75
2022-07-30T19:45:50.199Z,101070.75
2022-07-30T19:48:29.455Z,101060.97
2022-07-30T19:50:57.775Z,101068.88
2022-07-30T19:53:25.008Z,101072.69
2022-07-30T19:55:51.767Z,101076.19
2022-07-30T19:58:19.782Z,101069.97
2022-07-30T20:00:49.268Z,101069.97
2022-07-30T20:03:16.228Z,101078.91
2022-07-30T20:05:57.015Z,101080.84
2022-07-30T20:08:25.721Z,101079.75
2022-07-30T20:10:52.017Z,101074.56
2022-07-30T20:13:18.587Z,101072.94
2022-07-30T20:15:45.889Z,101079.19
2022-07-30T20:18:12.720Z,101073.75
2022-07-30T20:20:41.134Z,101068.59
2022-07-30T20:23:08.012Z,101070.22
2022-07-30T20:25:37.326Z,101065.06
2022-07-30T20:28:04.171Z,101058.78
2022-07-30T20:30:30.967Z,101069.66
2022-07-30T20:32:57.485Z,101064.22
2022-07-30T20:35:24.815Z,101071.59
2022-07-30T20:37:54.799Z,101070.75
2022-07-30T20:40:22.059Z,101068.03
2022-07-30T20:42:49.460Z,101063.44
2022-07-30T20:45:15.778Z,101067.22
2022-07-30T20:47:42.326Z,101068.03
2022-07-30T20:50:14.228Z,101073.47
2022-07-30T20:52:40.876Z,101076.47
2022-07-30T20:55:14.348Z,101076.47
2022-07-30T20:57:57.122Z,101069.66
2022-07-30T21:00:28.905Z,101075.38
2022-07-30T21:02:55.270Z,101082.72
2022-07-30T21:05:21.657Z,101072.94
2022-07-30T21:07:48.307Z,101073.75
2022-07-30T21:10:19.395Z,101075.66
2022-07-30T21:12:52.931Z,101072.94
2022-07-30T21:15:24.027Z,101072.94
2022-07-30T21:17:50.950Z,101071.03
2022-07-30T21:20:17.320Z,101068.56
2022-07-30T21:22:54.303Z,101072.38
2022-07-30T21:25:20.642Z,101075.66
2022-07-30T21:27:50.081Z,101076.47
2022-07-30T21:30:16.786Z,101075.09
2022-07-30T21:32:43.409Z,101079.44
2022-07-30T21:35:09.758Z,101075.94
2022-07-30T21:37:38.230Z,101084.09
2022-07-30T21:40:09.367Z,101078.09
2022-07-30T21:42:36.403Z,101081.09
2022-07-30T21:45:15.146Z,101075.94
2022-07-30T21:47:48.049Z,101081.09
2022-07-30T21:50:14.674Z,101086.81
2022-07-30T21:52:42.595Z,101088.16
2022-07-30T21:55:08.990Z,101083.81
2022-07-30T21:57:42.697Z,101082.47
2022-07-30T22:00:11.265Z,101080.81
2022-07-30T22:02:38.701Z,101087.34
2022-07-30T22:05:19.673Z,101083.25
2022-07-30T22:07:48.349Z,101078.09
2022-07-30T22:10:15.087Z,101083.25
2022-07-30T22:12:48.061Z,101084.09
2022-07-30T22:15:15.058Z,101080.53
2022-07-30T22:17:58.027Z,101080.28
2022-07-30T22:20:27.227Z,101083.53
2022-07-30T22:22:53.875Z,101075.91
2022-07-30T22:25:21.574Z,101078.91
2022-07-30T22:27:56.012Z,101073.47
2022-07-30T22:30:23.333Z,101076.19
2022-07-30T22:32:49.730Z,101073.47
2022-07-30T22:35:16.475Z,101072.91
2022-07-30T22:37:42.885Z,101077.56
2022-07-30T22:40:12.285Z,101079.44
2022-07-30T22:42:49.800Z,101076.44
2022-07-30T22:45:16.538Z,101076.44
2022-07-30T22:48:09.923Z,101073.72
2022-07-30T22:50:36.745Z,101066.94
2022-07-30T22:53:56.659Z,101071.28
2022-07-30T22:55:53.249Z,101061.50
2022-07-30T22:58:22.057Z,101063.13
2022-07-30T23:00:53.001Z,101065.31
2022-07-30T23:03:19.614Z,101055.78
2022-07-30T23:05:55.306Z,101052.78
2022-07-30T23:08:30.226Z,101052.78
2022-07-30T23:10:57.422Z,101056.59
2022-07-30T23:13:23.700Z,101056.59
2022-07-30T23:15:50.043Z,101044.06
2022-07-30T23:18:16.378Z,101042.97
2022-07-30T23:20:42.694Z,101040.25
2022-07-30T23:23:09.228Z,101045.44
2022-07-30T23:25:38.880Z,101046.53
2022-07-30T23:28:05.455Z,101043.53
2022-07-30T23:30:34.178Z,101037.28
2022-07-30T23:33:00.909Z,101028.84
2022-07-30T23:35:27.357Z,101032.38
2022-07-30T23:37:53.751Z,101025.81
2022-07-30T23:40:20.167Z,101035.91
2022-07-30T23:42:46.540Z,101029.91
2022-07-30T23:45:12.926Z,101022.31
2022-07-30T23:48:00.800Z,101023.09
2022-07-30T23:50:25.577Z,101025.03
2022-07-30T23:52:52.014Z,101024.47
2022-07-30T23:55:18.445Z,101026.13
2022-07-30T23:57:44.957Z,101023.41
